createdAt,value
2022-08-11T00:01:00.101Z,0.40
2022-08-11T00:03:42.493Z,0.30
2022-08-11T00:06:11.231Z,0.28
2022-08-11T00:08:37.643Z,0.20
2022-08-11T00:11:06.006Z,0.30
2022-08-11T00:13:36.471Z,0.40
2022-08-11T00:16:04.155Z,0.28
2022-08-11T00:18:38.449Z,0.20
2022-08-11T00:21:04.939Z,0.43
2022-08-11T00:23:31.327Z,0.17
2022-08-11T00:25:58.259Z,0.10
2022-08-11T00:28:27.087Z,0.20
2022-08-11T00:30:54.454Z,0.28
2022-08-11T00:33:22.506Z,0.40
2022-08-11T00:36:10.954Z,0.38
2022-08-11T00:38:38.860Z,0.20
2022-08-11T00:41:11.136Z,0.20
2022-08-11T00:43:57.043Z,0.30
2022-08-11T00:46:38.246Z,0.20
2022-08-11T00:49:23.288Z,0.30
2022-08-11T00:52:05.702Z,0.40
2022-08-11T00:54:38.703Z,0.20
2022-08-11T00:57:36.726Z,0.20
2022-08-11T01:00:15.467Z,0.30
2022-08-11T01:02:46.620Z,0.10
2022-08-11T01:05:12.886Z,0.23
2022-08-11T01:08:02.072Z,0.20
2022-08-11T01:10:29.337Z,0.30
2022-08-11T01:13:15.923Z,0.30
2022-08-11T01:15:59.420Z,0.15
2022-08-11T01:18:31.524Z,0.15
2022-08-11T01:21:07.719Z,0.20
2022-08-11T01:23:39.925Z,0.00
2022-08-11T01:26:18.540Z,0.10
2022-08-11T01:29:03.711Z,0.10
2022-08-11T01:31:29.942Z,0.00
2022-08-11T01:34:08.533Z,0.15
2022-08-11T01:36:41.207Z,0.20
2022-08-11T01:39:13.468Z,0.10
2022-08-11T01:42:22.239Z,0.20
2022-08-11T01:45:03.587Z,0.25
2022-08-11T01:47:53.765Z,0.03
2022-08-11T01:50:41.359Z,0.15
2022-08-11T01:53:27.915Z,0.20
2022-08-11T01:56:05.018Z,0.10
2022-08-11T01:58:44.170Z,0.10
2022-08-11T02:01:16.181Z,0.10
2022-08-11T02:03:46.236Z,0.10
2022-08-11T02:06:44.480Z,0.10
2022-08-11T02:09:34.587Z,0.25
2022-08-11T02:12:10.332Z,0.30
2022-08-11T02:15:05.244Z,0.10
2022-08-11T02:17:40.828Z,0.20
2022-08-11T02:20:25.867Z,0.20
2022-08-11T02:23:59.650Z,0.20
2022-08-11T02:26:09.568Z,0.10
2022-08-11T02:28:40.123Z,0.15
2022-08-11T02:32:24.953Z,0.10
2022-08-11T02:34:39.887Z,0.30
2022-08-11T02:37:24.857Z,0.13
2022-08-11T02:39:53.971Z,0.10
2022-08-11T02:42:42.517Z,0.10
2022-08-11T02:45:11.978Z,0.00
2022-08-11T02:48:16.027Z,0.10
2022-08-11T02:50:49.251Z,0.10
2022-08-11T02:53:30.803Z,0.10
2022-08-11T02:56:08.692Z,0.08
2022-08-11T02:58:38.574Z,0.30
2022-08-11T03:01:15.486Z,0.10
2022-08-11T03:03:51.193Z,0.10
2022-08-11T03:06:26.855Z,0.15
2022-08-11T03:08:56.167Z,0.00
2022-08-11T03:12:01.326Z,0.22
2022-08-11T03:15:05.537Z,0.10
2022-08-11T03:17:56.078Z,0.15
2022-08-11T03:20:37.837Z,0.00
2022-08-11T03:23:19.920Z,0.10
2022-08-11T03:25:50.946Z,0.03
2022-08-11T03:28:24.498Z,0.10
2022-08-11T03:31:09.559Z,0.10
2022-08-11T03:34:06.309Z,0.10
2022-08-11T03:37:15.186Z,0.10
2022-08-11T03:39:56.213Z,0.20
2022-08-11T03:42:40.280Z,0.20
2022-08-11T03:45:23.896Z,0.10
2022-08-11T03:47:55.306Z,0.00
2022-08-11T03:50:40.818Z,0.10
2022-08-11T03:53:07.051Z,0.03
2022-08-11T03:55:47.372Z,0.03
2022-08-11T03:58:41.151Z,0.10
2022-08-11T04:01:35.399Z,0.05
2022-08-11T04:04:40.420Z,0.00
2022-08-11T04:07:31.651Z,0.00
2022-08-11T04:10:04.091Z,0.10
2022-08-11T04:12:35.574Z,0.05
2022-08-11T04:15:40.204Z,0.00
2022-08-11T04:18:15.415Z,0.15
2022-08-11T04:21:00.503Z,0.00
2022-08-11T04:24:13.119Z,0.30
2022-08-11T04:26:51.047Z,0.03
2022-08-11T04:29:36.486Z,0.00
2022-08-11T04:32:31.458Z,0.00
2022-08-11T04:35:11.538Z,0.05
2022-08-11T04:38:05.481Z,0.10
2022-08-11T04:40:50.791Z,0.10
2022-08-11T04:43:35.700Z,0.03
2022-08-11T04:46:21.987Z,0.10
2022-08-11T04:49:07.094Z,0.10
2022-08-11T04:52:07.108Z,0.00
2022-08-11T04:54:58.074Z,0.20
2022-08-11T04:57:53.343Z,0.20
2022-08-11T05:00:37.987Z,0.08
2022-08-11T05:03:22.108Z,0.10
2022-08-11T05:06:01.325Z,0.08
2022-08-11T05:08:46.359Z,0.15
2022-08-11T05:11:31.473Z,0.20
2022-08-11T05:14:39.677Z,0.32
2022-08-11T05:17:29.632Z,0.20
2022-08-11T05:20:14.375Z,0.20
2022-08-11T05:23:02.598Z,0.20
2022-08-11T05:26:44.927Z,0.10
2022-08-11T05:29:20.271Z,0.10
2022-08-11T05:32:09.919Z,0.20
2022-08-11T05:34:53.910Z,0.15
2022-08-11T05:37:27.306Z,0.03
2022-08-11T05:40:16.061Z,0.13
2022-08-11T05:43:12.694Z,0.20
2022-08-11T05:46:04.693Z,0.28
2022-08-11T05:48:54.284Z,0.00
2022-08-11T05:51:39.465Z,0.10
2022-08-11T05:54:37.828Z,0.30
2022-08-11T05:57:05.404Z,0.08
2022-08-11T05:59:32.226Z,0.30
2022-08-11T06:02:02.610Z,0.20
2022-08-11T06:04:29.098Z,0.20
2022-08-11T06:07:00.627Z,0.22
2022-08-11T06:09:47.285Z,0.20
2022-08-11T06:12:32.815Z,0.38
2022-08-11T06:15:04.107Z,0.30
2022-08-11T06:17:38.937Z,0.50
2022-08-11T06:20:09.611Z,0.25
2022-08-11T06:22:36.330Z,0.43
2022-08-11T06:25:04.746Z,0.60
2022-08-11T06:27:32.213Z,0.50
2022-08-11T06:29:59.122Z,0.65
2022-08-11T06:32:26.832Z,0.50
2022-08-11T06:34:59.266Z,0.70
2022-08-11T06:37:45.261Z,0.75
2022-08-11T06:40:16.271Z,0.70
2022-08-11T06:43:09.017Z,0.70
2022-08-11T06:45:41.395Z,1.05
2022-08-11T06:48:15.117Z,1.10
2022-08-11T06:51:00.287Z,1.15
2022-08-11T06:53:32.749Z,0.90
2022-08-11T06:56:17.553Z,0.80
2022-08-11T06:59:02.447Z,0.88
2022-08-11T07:01:36.996Z,1.00
2022-08-11T07:04:08.298Z,1.00
2022-08-11T07:06:41.692Z,1.00
2022-08-11T07:09:55.100Z,0.90
2022-08-11T07:12:50.532Z,1.10
2022-08-11T07:16:12.928Z,1.00
2022-08-11T07:18:44.384Z,1.30
2022-08-11T07:22:00.211Z,1.20
2022-08-11T07:25:01.831Z,1.20
2022-08-11T07:27:49.799Z,1.35
2022-08-11T07:30:17.249Z,1.23
2022-08-11T07:32:51.028Z,1.13
2022-08-11T07:35:18.199Z,1.13
2022-08-11T07:37:47.721Z,1.20
2022-08-11T07:40:15.879Z,1.30
2022-08-11T07:42:46.458Z,1.20
2022-08-11T07:45:31.699Z,1.10
2022-08-11T07:48:17.006Z,1.30
2022-08-11T07:51:02.941Z,1.00
2022-08-11T07:53:30.457Z,0.80
2022-08-11T07:55:57.995Z,0.80
2022-08-11T07:58:45.429Z,0.82
2022-08-11T08:01:44.114Z,0.73
2022-08-11T08:04:30.158Z,0.70
2022-08-11T08:07:16.042Z,0.70
2022-08-11T08:10:01.886Z,0.60
2022-08-11T08:12:47.555Z,0.52
2022-08-11T08:15:33.536Z,0.90
2022-08-11T08:18:09.264Z,0.60
2022-08-11T08:20:49.815Z,0.68
2022-08-11T08:23:17.480Z,0.57
2022-08-11T08:25:45.481Z,0.70
2022-08-11T08:28:14.886Z,0.70
2022-08-11T08:30:48.268Z,0.50
2022-08-11T08:33:17.116Z,0.50
2022-08-11T08:35:54.185Z,0.73
2022-08-11T08:38:22.232Z,0.57
2022-08-11T08:40:52.017Z,0.50
2022-08-11T08:43:18.426Z,0.50
2022-08-11T08:45:44.943Z,0.88
2022-08-11T08:48:13.193Z,0.77
2022-08-11T08:51:02.269Z,0.57
2022-08-11T08:53:31.867Z,0.50
2022-08-11T08:56:01.773Z,0.70
2022-08-11T08:58:28.451Z,0.85
2022-08-11T09:00:56.436Z,0.50
2022-08-11T09:03:41.846Z,0.55
2022-08-11T09:06:10.136Z,0.82
2022-08-11T09:08:36.506Z,0.65
2022-08-11T09:11:26.459Z,0.70
2022-08-11T09:14:05.509Z,0.57
2022-08-11T09:16:33.110Z,0.82
2022-08-11T09:19:01.158Z,0.77
2022-08-11T09:21:44.556Z,0.60
2022-08-11T09:24:32.392Z,0.52
2022-08-11T09:27:02.872Z,0.47
2022-08-11T09:29:30.388Z,0.60
2022-08-11T09:31:57.736Z,0.52
2022-08-11T09:34:26.220Z,0.57
2022-08-11T09:37:11.477Z,0.70
2022-08-11T09:39:57.284Z,0.70
2022-08-11T09:42:44.090Z,0.82
2022-08-11T09:45:11.676Z,0.55
2022-08-11T09:47:38.394Z,0.70
2022-08-11T09:50:05.281Z,0.43
2022-08-11T09:52:57.180Z,0.50
2022-08-11T09:55:27.139Z,0.50
2022-08-11T09:58:12.255Z,0.40
2022-08-11T10:00:59.109Z,0.60
2022-08-11T10:03:26.218Z,0.60
2022-08-11T10:06:18.203Z,0.52
2022-08-11T10:08:46.018Z,0.45
2022-08-11T10:11:14.176Z,0.68
2022-08-11T10:14:34.018Z,0.50
2022-08-11T10:16:51.115Z,0.50
2022-08-11T10:19:19.276Z,0.50
2022-08-11T10:22:11.499Z,0.47
2022-08-11T10:24:56.952Z,0.60
2022-08-11T10:27:28.631Z,0.52
2022-08-11T10:30:29.004Z,0.60
2022-08-11T10:33:18.976Z,0.60
2022-08-11T10:36:03.627Z,0.65
2022-08-11T10:38:42.521Z,0.47
2022-08-11T10:41:27.597Z,0.50
2022-08-11T10:44:01.362Z,0.55
2022-08-11T10:46:49.236Z,0.68
2022-08-11T10:49:15.831Z,0.68
2022-08-11T10:52:01.010Z,0.60
2022-08-11T10:54:49.297Z,0.55
2022-08-11T10:57:35.595Z,0.80
2022-08-11T11:00:04.550Z,0.50
2022-08-11T11:02:30.907Z,0.85
2022-08-11T11:05:10.138Z,0.60
2022-08-11T11:07:41.507Z,0.52
2022-08-11T11:10:10.840Z,0.47
2022-08-11T11:12:58.476Z,0.60
2022-08-11T11:15:45.359Z,0.40
2022-08-11T11:18:15.608Z,0.60
2022-08-11T11:20:47.078Z,0.60
2022-08-11T11:23:16.724Z,0.50
2022-08-11T11:26:13.141Z,0.50
2022-08-11T11:29:01.931Z,0.50
2022-08-11T11:31:48.328Z,0.57
2022-08-11T11:34:14.551Z,0.50
2022-08-11T11:36:45.493Z,0.60
2022-08-11T11:39:12.022Z,0.68
2022-08-11T11:41:39.574Z,0.73
2022-08-11T11:44:06.480Z,0.60
2022-08-11T11:46:39.074Z,0.68
2022-08-11T11:49:09.075Z,0.50
2022-08-11T11:51:43.485Z,0.50
2022-08-11T11:54:13.907Z,0.50
2022-08-11T11:56:41.506Z,0.60
2022-08-11T11:59:26.684Z,0.50
2022-08-11T12:01:54.520Z,0.50
2022-08-11T12:04:21.251Z,0.50
2022-08-11T12:06:47.588Z,0.50
2022-08-11T12:09:18.295Z,0.50
2022-08-11T12:12:03.679Z,0.50
2022-08-11T12:14:30.428Z,0.50
2022-08-11T12:16:57.463Z,0.60
2022-08-11T12:19:25.243Z,0.60
2022-08-11T12:22:10.806Z,0.50
2022-08-11T12:24:56.490Z,0.60
2022-08-11T12:27:25.019Z,0.50
2022-08-11T12:29:56.709Z,0.60
2022-08-11T12:32:24.483Z,0.50
2022-08-11T12:34:50.963Z,0.60
2022-08-11T12:37:23.504Z,0.60
2022-08-11T12:40:16.310Z,0.63
2022-08-11T12:43:21.237Z,0.60
2022-08-11T12:45:58.205Z,0.70
2022-08-11T12:48:59.758Z,0.60
2022-08-11T12:52:14.396Z,0.60
2022-08-11T12:54:52.165Z,0.60
2022-08-11T12:57:42.475Z,0.60
2022-08-11T13:00:27.868Z,0.60
2022-08-11T13:03:13.614Z,0.50
2022-08-11T13:05:45.172Z,0.60
2022-08-11T13:08:13.779Z,0.70
2022-08-11T13:10:59.052Z,0.63
2022-08-11T13:13:52.496Z,0.70
2022-08-11T13:16:12.736Z,0.60
2022-08-11T13:18:42.235Z,0.55
2022-08-11T13:21:10.116Z,0.70
2022-08-11T13:23:36.909Z,0.70
2022-08-11T13:26:03.648Z,0.70
2022-08-11T13:28:30.086Z,0.70
2022-08-11T13:31:11.394Z,0.60
2022-08-11T13:33:51.573Z,0.50
2022-08-11T13:36:23.808Z,0.70
2022-08-11T13:38:52.424Z,0.60
2022-08-11T13:41:37.248Z,0.60
2022-08-11T13:44:04.332Z,0.70
2022-08-11T13:46:30.765Z,0.60
2022-08-11T13:49:00.536Z,0.60
2022-08-11T13:51:34.537Z,0.80
2022-08-11T13:54:09.238Z,0.70
2022-08-11T13:56:40.618Z,0.60
2022-08-11T13:59:08.235Z,0.60
2022-08-11T14:02:22.744Z,0.60
2022-08-11T14:04:31.486Z,0.60
2022-08-11T14:07:00.724Z,0.60
2022-08-11T14:09:27.805Z,0.70
2022-08-11T14:12:22.060Z,0.60
2022-08-11T14:14:54.932Z,0.60
2022-08-11T14:17:46.952Z,0.60
2022-08-11T14:20:38.166Z,0.70
2022-08-11T14:22:56.462Z,0.60
2022-08-11T14:25:22.755Z,0.70
2022-08-11T14:28:31.583Z,0.70
2022-08-11T14:30:58.962Z,0.60
2022-08-11T14:33:27.750Z,0.60
2022-08-11T14:36:14.283Z,0.70
2022-08-11T14:38:41.622Z,0.65
2022-08-11T14:41:27.084Z,0.77
2022-08-11T14:44:14.762Z,0.60
2022-08-11T14:47:00.498Z,0.60
2022-08-11T14:49:27.607Z,0.70
2022-08-11T14:51:55.017Z,0.60
2022-08-11T14:54:44.122Z,0.70
2022-08-11T14:57:10.535Z,0.60
2022-08-11T14:59:37.555Z,0.65
2022-08-11T15:02:23.534Z,0.63
2022-08-11T15:04:50.632Z,0.68
2022-08-11T15:07:17.499Z,0.65
2022-08-11T15:10:09.835Z,0.60
2022-08-11T15:12:32.216Z,0.60
2022-08-11T15:15:19.003Z,0.65
2022-08-11T15:17:45.952Z,0.77
2022-08-11T15:20:34.700Z,0.70
2022-08-11T15:23:19.995Z,0.77
2022-08-11T15:25:48.410Z,0.70
2022-08-11T15:28:34.355Z,0.68
2022-08-11T15:31:21.047Z,0.60
2022-08-11T15:34:08.904Z,0.60
2022-08-11T15:36:54.801Z,0.60
2022-08-11T15:39:36.275Z,0.63
2022-08-11T15:42:30.262Z,0.70
2022-08-11T15:45:16.070Z,0.60
2022-08-11T15:47:44.444Z,0.80
2022-08-11T15:50:17.693Z,0.65
2022-08-11T15:52:47.685Z,0.70
2022-08-11T15:55:14.153Z,0.60
2022-08-11T15:57:59.417Z,0.70
2022-08-11T16:00:44.770Z,0.60
2022-08-11T16:03:54.514Z,0.60
2022-08-11T16:06:18.132Z,0.70
2022-08-11T16:08:44.813Z,0.60
2022-08-11T16:11:11.411Z,0.75
2022-08-11T16:13:41.654Z,0.60
2022-08-11T16:16:14.387Z,0.60
2022-08-11T16:18:56.438Z,0.60
2022-08-11T16:21:33.673Z,0.60
2022-08-11T16:24:03.404Z,0.70
2022-08-11T16:27:08.420Z,0.65
2022-08-11T16:29:18.017Z,0.80
2022-08-11T16:32:05.082Z,0.80
2022-08-11T16:34:50.217Z,0.70
2022-08-11T16:37:35.707Z,0.70
2022-08-11T16:40:02.471Z,0.70
2022-08-11T16:43:09.018Z,0.70
2022-08-11T16:45:52.976Z,0.70
2022-08-11T16:48:35.533Z,0.60
2022-08-11T16:51:05.061Z,0.80
2022-08-11T16:54:00.068Z,0.70
2022-08-11T16:56:38.655Z,0.70
2022-08-11T16:59:15.204Z,0.60
2022-08-11T17:01:43.032Z,0.73
2022-08-11T17:04:34.132Z,0.60
2022-08-11T17:10:31.646Z,0.60
2022-08-11T17:13:09.313Z,0.70
2022-08-11T17:16:03.087Z,0.60
2022-08-11T17:18:43.232Z,0.70
2022-08-11T17:21:12.674Z,0.60
2022-08-11T17:23:52.092Z,0.70
2022-08-11T17:26:21.503Z,0.80
2022-08-11T17:28:52.043Z,0.60
2022-08-11T17:31:38.492Z,0.60
2022-08-11T17:34:24.611Z,0.55
2022-08-11T17:36:52.535Z,0.60
2022-08-11T17:39:19.281Z,0.68
2022-08-11T17:42:04.195Z,0.60
2022-08-11T17:44:49.404Z,0.50
2022-08-11T17:47:34.810Z,0.50
2022-08-11T17:50:09.007Z,0.47
2022-08-11T17:53:01.908Z,0.60
2022-08-11T17:55:52.731Z,0.60
2022-08-11T18:01:09.400Z,0.60
2022-08-11T18:03:39.555Z,0.50
2022-08-11T18:06:12.642Z,0.47
2022-08-11T18:09:01.594Z,0.47
2022-08-11T18:12:06.634Z,0.40
2022-08-11T18:14:55.772Z,0.38
2022-08-11T18:17:40.917Z,0.88
2022-08-11T18:20:26.409Z,0.43
2022-08-11T18:23:12.628Z,0.40
2022-08-11T18:25:59.008Z,0.60
2022-08-11T18:28:45.859Z,0.50
2022-08-11T18:31:32.234Z,0.60
2022-08-11T18:34:19.530Z,0.68
2022-08-11T18:37:07.389Z,0.47
2022-08-11T18:39:56.575Z,0.50
2022-08-11T18:42:42.395Z,0.40
2022-08-11T18:45:29.709Z,0.40
2022-08-11T18:48:30.514Z,0.50
2022-08-11T18:51:31.435Z,0.45
2022-08-11T18:54:24.561Z,0.35
2022-08-11T18:57:09.832Z,0.50
2022-08-11T18:59:56.595Z,0.47
2022-08-11T19:02:49.589Z,0.47
2022-08-11T19:06:35.543Z,0.30
2022-08-11T19:08:41.989Z,0.40
2022-08-11T19:11:28.483Z,0.40
2022-08-11T19:14:13.795Z,0.40
2022-08-11T19:16:59.740Z,0.40
2022-08-11T19:19:47.565Z,0.50
2022-08-11T19:22:33.188Z,0.30
2022-08-11T19:25:23.297Z,0.50
2022-08-11T19:28:11.280Z,0.30
2022-08-11T19:30:56.572Z,0.50
2022-08-11T19:34:02.730Z,0.38
2022-08-11T19:36:47.329Z,0.40
2022-08-11T19:39:32.651Z,0.50
2022-08-11T19:42:18.316Z,0.40
2022-08-11T19:45:03.732Z,0.30
2022-08-11T19:47:49.437Z,0.40
2022-08-11T19:50:34.827Z,0.30
2022-08-11T19:53:23.726Z,0.47
2022-08-11T19:56:10.438Z,0.40
2022-08-11T19:58:56.331Z,0.40
2022-08-11T20:02:12.604Z,0.30
2022-08-11T20:04:46.727Z,0.30
2022-08-11T20:07:36.584Z,0.30
2022-08-11T20:10:22.958Z,0.28
2022-08-11T20:13:07.722Z,0.40
2022-08-11T20:15:53.528Z,0.30
2022-08-11T20:18:39.737Z,0.28
2022-08-11T20:21:31.429Z,0.32
2022-08-11T20:24:18.838Z,0.40
2022-08-11T20:27:04.719Z,0.30
2022-08-11T20:29:51.168Z,0.30
2022-08-11T20:32:36.401Z,0.30
2022-08-11T20:35:21.574Z,0.15
2022-08-11T20:38:11.757Z,0.50
2022-08-11T20:40:58.446Z,0.20
2022-08-11T20:44:07.966Z,0.55
2022-08-11T20:46:49.646Z,0.20
2022-08-11T20:52:43.234Z,0.30
2022-08-11T20:55:51.425Z,0.30
2022-08-11T21:01:43.627Z,0.38
2022-08-11T21:04:29.351Z,0.32
2022-08-11T21:07:23.527Z,0.40
2022-08-11T21:10:22.739Z,0.30
2022-08-11T21:13:24.025Z,0.32
2022-08-11T21:16:25.099Z,0.43
2022-08-11T21:19:12.016Z,0.20
2022-08-11T21:21:57.312Z,0.40
2022-08-11T21:24:47.974Z,0.30
2022-08-11T21:27:33.876Z,0.30
2022-08-11T21:30:19.195Z,0.15
2022-08-11T21:33:04.408Z,0.30
2022-08-11T21:35:50.192Z,0.25
2022-08-11T21:38:36.027Z,0.30
2022-08-11T21:41:20.772Z,0.28
2022-08-11T21:44:09.857Z,0.40
2022-08-11T21:46:55.574Z,0.50
2022-08-11T21:49:41.776Z,0.17
2022-08-11T21:52:26.992Z,0.40
2022-08-11T21:55:12.189Z,0.40
2022-08-11T21:57:58.344Z,0.28
2022-08-11T22:00:43.837Z,0.20
2022-08-11T22:03:28.563Z,0.28
2022-08-11T22:06:16.255Z,0.20
2022-08-11T22:09:01.435Z,0.20
2022-08-11T22:11:46.818Z,0.22
2022-08-11T22:14:32.136Z,0.22
2022-08-11T22:17:17.022Z,0.30
2022-08-11T22:20:02.392Z,0.25
2022-08-11T22:22:52.016Z,0.30
2022-08-11T22:25:38.886Z,0.35
2022-08-11T22:28:24.261Z,0.40
2022-08-11T22:31:08.940Z,0.20
2022-08-11T22:34:02.749Z,0.30
2022-08-11T22:36:48.614Z,0.30
2022-08-11T22:39:35.344Z,0.20
2022-08-11T22:42:21.617Z,0.30
2022-08-11T22:45:18.031Z,0.30
2022-08-11T22:48:04.596Z,0.30
2022-08-11T22:50:49.868Z,0.30
2022-08-11T22:53:55.008Z,0.30
2022-08-11T22:56:41.887Z,0.20
2022-08-11T22:59:27.093Z,0.20
2022-08-11T23:02:12.376Z,0.22
2022-08-11T23:04:58.621Z,0.20
2022-08-11T23:07:51.276Z,0.20
2022-08-11T23:10:37.214Z,0.30
2022-08-11T23:13:22.472Z,0.20
2022-08-11T23:16:07.916Z,0.30
2022-08-11T23:18:52.644Z,0.30
2022-08-11T23:21:37.696Z,0.10
2022-08-11T23:24:22.971Z,0.10
2022-08-11T23:27:07.782Z,0.20
2022-08-11T23:29:53.584Z,0.20
2022-08-11T23:32:44.604Z,0.47
2022-08-11T23:35:39.617Z,0.25
2022-08-11T23:38:25.738Z,0.35
2022-08-11T23:41:10.971Z,0.30
2022-08-11T23:43:56.319Z,0.30
2022-08-11T23:46:42.600Z,0.30
2022-08-11T23:49:28.236Z,0.40
2022-08-11T23:52:12.973Z,0.20
2022-08-11T23:54:57.677Z,0.20
2022-08-11T23:57:47.745Z,0.10
